AIC1XW VOHS-VABB
Flight info
| Callsign | AIC1XW |
|---|---|
| Flight time | 0h 57m |
| Altitude | 38000 |
| Route | TAMIV5 APUSU W18 OPAKA EMRAK2A |
| Aircraft | B772/H-SDE2E3FGHIJ5LORVWXY/LB1D1 |
Departure
| Time | 2026-04-22 05:09 |
|---|---|
| Airport | Rajiv Gandhi International Airport (VOHS) |
Arrival
| Time | 2026-04-22 06:06 |
|---|---|
| Airport | Chhatrapati Shivaji Maharaj International Airport (VABB) |
| Time | Latitude | Longitude | Altitude | Speed | Heading |
|---|---|---|---|---|---|
| 2026-04-22 04:43 | 17.23403 | 78.43031 | 1984 ft | 0 kts | 359° |
| 2026-04-22 04:59 | 17.23402 | 78.43031 | 1984 ft | 2 kts | 359° |
| 2026-04-22 04:59 | 17.23377 | 78.43031 | 1984 ft | 4 kts | 359° |
| 2026-04-22 05:00 | 17.23356 | 78.43032 | 1985 ft | 4 kts | 12° |
| 2026-04-22 05:00 | 17.23338 | 78.43023 | 1983 ft | 4 kts | 57° |
| 2026-04-22 05:00 | 17.23331 | 78.43001 | 1983 ft | 4 kts | 89° |
| 2026-04-22 05:00 | 17.23331 | 78.43011 | 1985 ft | 1 kts | 89° |
| 2026-04-22 05:01 | 17.23331 | 78.43012 | 1985 ft | 4 kts | 89° |
| 2026-04-22 05:03 | 17.23331 | 78.43027 | 1983 ft | 8 kts | 89° |
| 2026-04-22 05:03 | 17.23332 | 78.43085 | 1987 ft | 8 kts | 89° |
| 2026-04-22 05:03 | 17.23321 | 78.43140 | 1986 ft | 8 kts | 125° |
| 2026-04-22 05:03 | 17.23271 | 78.43164 | 1985 ft | 8 kts | 158° |
| 2026-04-22 05:04 | 17.23247 | 78.43216 | 1986 ft | 10 kts | 95° |
| 2026-04-22 05:04 | 17.23247 | 78.43288 | 1984 ft | 11 kts | 89° |
| 2026-04-22 05:04 | 17.23248 | 78.43371 | 1984 ft | 13 kts | 89° |
| 2026-04-22 05:04 | 17.23250 | 78.43478 | 1985 ft | 17 kts | 89° |
| 2026-04-22 05:05 | 17.23252 | 78.43611 | 1984 ft | 19 kts | 89° |
| 2026-04-22 05:05 | 17.23254 | 78.43751 | 1984 ft | 19 kts | 89° |
| 2026-04-22 05:05 | 17.23257 | 78.43891 | 1988 ft | 19 kts | 89° |
| 2026-04-22 05:05 | 17.23259 | 78.44032 | 1988 ft | 19 kts | 89° |
| 2026-04-22 05:06 | 17.23261 | 78.44172 | 1987 ft | 19 kts | 89° |
| 2026-04-22 05:06 | 17.23262 | 78.44307 | 1988 ft | 11 kts | 90° |
| 2026-04-22 05:06 | 17.23220 | 78.44364 | 1987 ft | 11 kts | 165° |
| 2026-04-22 05:06 | 17.23143 | 78.44371 | 1988 ft | 11 kts | 167° |
| 2026-04-22 05:07 | 17.23103 | 78.44446 | 1988 ft | 15 kts | 90° |
| 2026-04-22 05:07 | 17.23104 | 78.44576 | 1985 ft | 20 kts | 89° |
| 2026-04-22 05:07 | 17.23106 | 78.44740 | 1984 ft | 25 kts | 89° |
| 2026-04-22 05:07 | 17.23109 | 78.44920 | 1987 ft | 25 kts | 89° |
| 2026-04-22 05:08 | 17.23113 | 78.45099 | 1987 ft | 25 kts | 89° |
| 2026-04-22 05:08 | 17.23114 | 78.45261 | 1987 ft | 17 kts | 98° |
| 2026-04-22 05:08 | 17.23028 | 78.45320 | 1988 ft | 16 kts | 179° |
| 2026-04-22 05:08 | 17.22933 | 78.45263 | 1987 ft | 17 kts | 229° |
| 2026-04-22 05:09 | 17.22905 | 78.45013 | 1985 ft | 65 kts | 269° |
| 2026-04-22 05:09 | 17.22896 | 78.44269 | 1988 ft | 138 kts | 269° |
| 2026-04-22 05:09 | 17.22884 | 78.43163 | 2490 ft | 154 kts | 271° |
| 2026-04-22 05:09 | 17.22875 | 78.42015 | 3284 ft | 163 kts | 271° |
| 2026-04-22 05:10 | 17.22858 | 78.40812 | 3921 ft | 171 kts | 270° |
| 2026-04-22 05:10 | 17.22840 | 78.39462 | 4049 ft | 197 kts | 271° |
| 2026-04-22 05:10 | 17.22820 | 78.37946 | 4221 ft | 221 kts | 271° |
| 2026-04-22 05:10 | 17.22795 | 78.36249 | 4415 ft | 244 kts | 270° |
| 2026-04-22 05:11 | 17.22767 | 78.34388 | 4683 ft | 265 kts | 270° |
| 2026-04-22 05:11 | 17.22774 | 78.32453 | 5331 ft | 266 kts | 276° |
| 2026-04-22 05:11 | 17.23154 | 78.30524 | 5896 ft | 275 kts | 286° |
| 2026-04-22 05:11 | 17.23719 | 78.28610 | 6654 ft | 275 kts | 288° |
| 2026-04-22 05:12 | 17.24325 | 78.26672 | 7198 ft | 285 kts | 288° |
| 2026-04-22 05:12 | 17.24937 | 78.24706 | 7823 ft | 291 kts | 288° |
| 2026-04-22 05:12 | 17.25562 | 78.22673 | 8482 ft | 297 kts | 288° |
| 2026-04-22 05:12 | 17.26190 | 78.20595 | 9165 ft | 300 kts | 288° |
| 2026-04-22 05:13 | 17.26817 | 78.18496 | 9875 ft | 305 kts | 288° |
| 2026-04-22 05:13 | 17.27454 | 78.16346 | 10394 ft | 317 kts | 288° |
| 2026-04-22 05:13 | 17.28130 | 78.14049 | 10577 ft | 344 kts | 288° |
| 2026-04-22 05:13 | 17.28850 | 78.11590 | 11041 ft | 360 kts | 288° |
| 2026-04-22 05:14 | 17.29589 | 78.09054 | 11841 ft | 367 kts | 288° |
| 2026-04-22 05:14 | 17.30333 | 78.06497 | 12911 ft | 368 kts | 288° |
| 2026-04-22 05:14 | 17.31081 | 78.03919 | 13866 ft | 373 kts | 288° |
| 2026-04-22 05:14 | 17.31841 | 78.01302 | 14687 ft | 379 kts | 288° |
| 2026-04-22 05:15 | 17.32608 | 77.98657 | 15613 ft | 381 kts | 287° |
| 2026-04-22 05:15 | 17.33379 | 77.95993 | 16553 ft | 383 kts | 287° |
| 2026-04-22 05:15 | 17.34157 | 77.93306 | 17444 ft | 387 kts | 287° |
| 2026-04-22 05:15 | 17.34941 | 77.90597 | 18301 ft | 391 kts | 287° |
| 2026-04-22 05:16 | 17.35731 | 77.87867 | 19071 ft | 393 kts | 286° |
| 2026-04-22 05:16 | 17.36525 | 77.85118 | 19852 ft | 395 kts | 286° |
| 2026-04-22 05:16 | 17.37325 | 77.82352 | 20562 ft | 399 kts | 285° |
| 2026-04-22 05:16 | 17.38134 | 77.79551 | 21297 ft | 403 kts | 285° |
| 2026-04-22 05:17 | 17.38946 | 77.76736 | 22051 ft | 406 kts | 285° |
| 2026-04-22 05:17 | 17.39765 | 77.73899 | 22795 ft | 408 kts | 284° |
| 2026-04-22 05:17 | 17.40589 | 77.71039 | 23529 ft | 412 kts | 284° |
| 2026-04-22 05:17 | 17.41419 | 77.68156 | 24146 ft | 415 kts | 284° |
| 2026-04-22 05:18 | 17.43088 | 77.62365 | 25407 ft | 421 kts | 283° |
| 2026-04-22 05:18 | 17.43914 | 77.59421 | 26036 ft | 421 kts | 281° |
| 2026-04-22 05:18 | 17.44496 | 77.56411 | 26595 ft | 422 kts | 275° |
| 2026-04-22 05:19 | 17.44887 | 77.53357 | 27175 ft | 424 kts | 273° |
| 2026-04-22 05:19 | 17.45216 | 77.50283 | 27744 ft | 426 kts | 272° |
| 2026-04-22 05:19 | 17.45542 | 77.47182 | 28305 ft | 429 kts | 272° |
| 2026-04-22 05:19 | 17.45886 | 77.44072 | 28845 ft | 432 kts | 272° |
| 2026-04-22 05:20 | 17.46330 | 77.40954 | 29283 ft | 437 kts | 279° |
| 2026-04-22 05:20 | 17.47483 | 77.37948 | 29619 ft | 453 kts | 295° |
| 2026-04-22 05:20 | 17.49345 | 77.35234 | 30070 ft | 465 kts | 306° |
| 2026-04-22 05:20 | 17.51747 | 77.32919 | 30425 ft | 473 kts | 315° |
| 2026-04-22 05:21 | 17.54330 | 77.30746 | 30682 ft | 479 kts | 315° |
| 2026-04-22 05:21 | 17.56968 | 77.28579 | 30990 ft | 484 kts | 316° |
| 2026-04-22 05:21 | 17.59631 | 77.26402 | 31325 ft | 487 kts | 315° |
| 2026-04-22 05:21 | 17.62296 | 77.24206 | 31633 ft | 489 kts | 315° |
| 2026-04-22 05:22 | 17.64972 | 77.21981 | 31917 ft | 492 kts | 315° |
| 2026-04-22 05:22 | 17.67656 | 77.19729 | 32185 ft | 495 kts | 314° |
| 2026-04-22 05:22 | 17.70347 | 77.17458 | 32443 ft | 498 kts | 314° |
| 2026-04-22 05:22 | 17.73049 | 77.15169 | 32685 ft | 501 kts | 314° |
| 2026-04-22 05:23 | 17.75730 | 77.12895 | 32917 ft | 503 kts | 314° |
| 2026-04-22 05:23 | 17.78460 | 77.10577 | 33164 ft | 505 kts | 313° |
| 2026-04-22 05:23 | 17.81193 | 77.08258 | 33423 ft | 507 kts | 313° |
| 2026-04-22 05:23 | 17.83939 | 77.05929 | 33705 ft | 508 kts | 313° |
| 2026-04-22 05:24 | 17.86690 | 77.03595 | 34010 ft | 508 kts | 313° |
| 2026-04-22 05:24 | 17.89436 | 77.01265 | 34286 ft | 508 kts | 313° |
| 2026-04-22 05:24 | 17.92186 | 76.98933 | 34611 ft | 507 kts | 313° |
| 2026-04-22 05:24 | 17.94925 | 76.96608 | 34930 ft | 506 kts | 313° |
| 2026-04-22 05:25 | 17.97659 | 76.94285 | 35240 ft | 505 kts | 313° |
| 2026-04-22 05:25 | 17.99465 | 76.92749 | 35438 ft | 505 kts | 313° |
| 2026-04-22 05:25 | 18.02194 | 76.90428 | 35755 ft | 504 kts | 313° |
| 2026-04-22 05:25 | 18.04919 | 76.88110 | 36071 ft | 503 kts | 312° |
| 2026-04-22 05:26 | 18.07639 | 76.85794 | 36368 ft | 503 kts | 312° |
| 2026-04-22 05:26 | 18.11240 | 76.82727 | 36774 ft | 502 kts | 312° |
| 2026-04-22 05:26 | 18.13076 | 76.81162 | 36960 ft | 502 kts | 312° |
| 2026-04-22 05:26 | 18.15790 | 76.78849 | 37255 ft | 501 kts | 312° |
| 2026-04-22 05:27 | 18.19376 | 76.75790 | 37642 ft | 501 kts | 312° |
| 2026-04-22 05:27 | 18.21169 | 76.74261 | 37818 ft | 501 kts | 312° |
| 2026-04-22 05:27 | 18.26603 | 76.69619 | 37967 ft | 502 kts | 312° |
| 2026-04-22 05:28 | 18.32020 | 76.64993 | 37971 ft | 500 kts | 311° |
| 2026-04-22 05:28 | 18.37415 | 76.60383 | 37978 ft | 498 kts | 311° |
| 2026-04-22 05:29 | 18.42765 | 76.55805 | 37972 ft | 498 kts | 311° |
| 2026-04-22 05:29 | 18.48134 | 76.51205 | 37978 ft | 498 kts | 311° |
| 2026-04-22 05:30 | 18.53507 | 76.46598 | 37973 ft | 498 kts | 311° |
| 2026-04-22 05:30 | 18.58887 | 76.41982 | 37974 ft | 499 kts | 311° |
| 2026-04-22 05:31 | 18.64276 | 76.37355 | 37973 ft | 499 kts | 311° |
| 2026-04-22 05:31 | 18.69677 | 76.32714 | 37976 ft | 500 kts | 311° |
| 2026-04-22 05:32 | 18.75072 | 76.28074 | 37974 ft | 500 kts | 311° |
| 2026-04-22 05:32 | 18.80441 | 76.23453 | 37973 ft | 501 kts | 311° |
| 2026-04-22 05:33 | 18.85837 | 76.18805 | 37969 ft | 500 kts | 311° |
| 2026-04-22 05:33 | 18.91231 | 76.14153 | 37973 ft | 500 kts | 311° |
| 2026-04-22 05:34 | 18.96622 | 76.09501 | 37972 ft | 500 kts | 311° |
| 2026-04-22 05:34 | 19.02019 | 76.04840 | 37973 ft | 500 kts | 311° |
| 2026-04-22 05:35 | 19.07378 | 76.00207 | 37971 ft | 499 kts | 311° |
| 2026-04-22 05:35 | 19.12758 | 75.95552 | 37962 ft | 499 kts | 311° |
| 2026-04-22 05:36 | 19.18130 | 75.90900 | 37966 ft | 499 kts | 311° |
| 2026-04-22 05:36 | 19.23470 | 75.86272 | 37958 ft | 498 kts | 311° |
| 2026-04-22 05:37 | 19.28828 | 75.81624 | 37967 ft | 498 kts | 311° |
| 2026-04-22 05:37 | 19.34182 | 75.76975 | 37964 ft | 497 kts | 311° |
| 2026-04-22 05:38 | 19.39529 | 75.72326 | 37967 ft | 497 kts | 311° |
| 2026-04-22 05:38 | 19.44837 | 75.67709 | 37963 ft | 496 kts | 311° |
| 2026-04-22 05:39 | 19.47312 | 75.65240 | 37966 ft | 479 kts | 299° |
| 2026-04-22 05:39 | 19.49094 | 75.62337 | 37970 ft | 461 kts | 287° |
| 2026-04-22 05:39 | 19.50245 | 75.59226 | 37959 ft | 447 kts | 276° |
| 2026-04-22 05:39 | 19.50775 | 75.56040 | 37968 ft | 433 kts | 267° |
| 2026-04-22 05:40 | 19.51339 | 75.49653 | 37962 ft | 436 kts | 267° |
| 2026-04-22 05:40 | 19.51936 | 75.43233 | 37966 ft | 439 kts | 268° |
| 2026-04-22 05:41 | 19.52568 | 75.36814 | 37970 ft | 441 kts | 268° |
| 2026-04-22 05:41 | 19.53217 | 75.30330 | 37967 ft | 443 kts | 268° |
| 2026-04-22 05:42 | 19.53870 | 75.23818 | 37968 ft | 444 kts | 268° |
| 2026-04-22 05:42 | 19.54518 | 75.17293 | 37581 ft | 451 kts | 268° |
| 2026-04-22 05:43 | 19.54840 | 75.13999 | 36909 ft | 454 kts | 269° |
| 2026-04-22 05:43 | 19.55169 | 75.10686 | 36191 ft | 451 kts | 269° |
| 2026-04-22 05:43 | 19.55385 | 75.07381 | 35505 ft | 445 kts | 264° |
| 2026-04-22 05:43 | 19.55259 | 75.04104 | 35015 ft | 442 kts | 260° |
| 2026-04-22 05:44 | 19.54913 | 75.00883 | 34753 ft | 436 kts | 257° |
| 2026-04-22 05:44 | 19.54327 | 74.97754 | 34516 ft | 429 kts | 253° |
| 2026-04-22 05:44 | 19.53679 | 74.94712 | 34220 ft | 428 kts | 253° |
| 2026-04-22 05:44 | 19.53006 | 74.91642 | 33860 ft | 427 kts | 253° |
| 2026-04-22 05:45 | 19.52334 | 74.88591 | 33419 ft | 421 kts | 253° |
| 2026-04-22 05:45 | 19.51676 | 74.85582 | 32951 ft | 417 kts | 254° |
| 2026-04-22 05:45 | 19.51028 | 74.82594 | 32491 ft | 412 kts | 254° |
| 2026-04-22 05:45 | 19.50388 | 74.79630 | 32044 ft | 409 kts | 254° |
| 2026-04-22 05:46 | 19.49767 | 74.76743 | 31602 ft | 406 kts | 254° |
| 2026-04-22 05:46 | 19.49143 | 74.73839 | 31172 ft | 403 kts | 255° |
| 2026-04-22 05:46 | 19.48518 | 74.70931 | 30481 ft | 408 kts | 255° |
| 2026-04-22 05:46 | 19.47873 | 74.67941 | 29246 ft | 424 kts | 255° |
| 2026-04-22 05:47 | 19.47204 | 74.64838 | 27987 ft | 437 kts | 256° |
| 2026-04-22 05:47 | 19.46524 | 74.61678 | 27132 ft | 440 kts | 256° |
| 2026-04-22 05:47 | 19.45844 | 74.58513 | 26380 ft | 439 kts | 256° |
| 2026-04-22 05:47 | 19.45175 | 74.55403 | 25708 ft | 437 kts | 256° |
| 2026-04-22 05:48 | 19.44500 | 74.52263 | 24964 ft | 437 kts | 256° |
| 2026-04-22 05:48 | 19.43822 | 74.49120 | 24303 ft | 436 kts | 256° |
| 2026-04-22 05:48 | 19.43148 | 74.45999 | 23757 ft | 432 kts | 256° |
| 2026-04-22 05:48 | 19.42479 | 74.42904 | 23108 ft | 428 kts | 256° |
| 2026-04-22 05:49 | 19.41817 | 74.39843 | 22485 ft | 425 kts | 256° |
| 2026-04-22 05:49 | 19.41158 | 74.36805 | 21928 ft | 420 kts | 256° |
| 2026-04-22 05:49 | 19.40516 | 74.33844 | 21371 ft | 415 kts | 256° |
| 2026-04-22 05:49 | 19.39870 | 74.30867 | 20823 ft | 411 kts | 256° |
| 2026-04-22 05:50 | 19.39233 | 74.27928 | 20299 ft | 407 kts | 257° |
| 2026-04-22 05:50 | 19.38609 | 74.25058 | 20107 ft | 398 kts | 257° |
| 2026-04-22 05:50 | 19.37983 | 74.22183 | 19971 ft | 399 kts | 257° |
| 2026-04-22 05:50 | 19.37358 | 74.19314 | 19962 ft | 400 kts | 257° |
| 2026-04-22 05:51 | 19.36733 | 74.16440 | 19959 ft | 397 kts | 257° |
| 2026-04-22 05:51 | 19.36115 | 74.13605 | 19959 ft | 402 kts | 257° |
| 2026-04-22 05:51 | 19.35482 | 74.10706 | 19959 ft | 404 kts | 257° |
| 2026-04-22 05:51 | 19.34848 | 74.07803 | 19885 ft | 403 kts | 257° |
| 2026-04-22 05:52 | 19.34219 | 74.04923 | 19489 ft | 399 kts | 257° |
| 2026-04-22 05:52 | 19.33593 | 74.02065 | 18962 ft | 396 kts | 257° |
| 2026-04-22 05:52 | 19.32973 | 73.99231 | 18510 ft | 392 kts | 257° |
| 2026-04-22 05:52 | 19.32360 | 73.96430 | 17999 ft | 389 kts | 257° |
| 2026-04-22 05:53 | 19.31751 | 73.93650 | 17436 ft | 386 kts | 257° |
| 2026-04-22 05:53 | 19.31145 | 73.90892 | 16924 ft | 383 kts | 257° |
| 2026-04-22 05:53 | 19.30542 | 73.88144 | 16501 ft | 378 kts | 257° |
| 2026-04-22 05:53 | 19.29958 | 73.85482 | 16092 ft | 374 kts | 256° |
| 2026-04-22 05:54 | 19.29367 | 73.82797 | 15623 ft | 372 kts | 256° |
| 2026-04-22 05:54 | 19.28782 | 73.80136 | 15146 ft | 369 kts | 256° |
| 2026-04-22 05:54 | 19.28202 | 73.77497 | 14687 ft | 367 kts | 256° |
| 2026-04-22 05:54 | 19.27621 | 73.74865 | 14213 ft | 366 kts | 256° |
| 2026-04-22 05:55 | 19.27043 | 73.72242 | 13710 ft | 366 kts | 256° |
| 2026-04-22 05:55 | 19.26469 | 73.69644 | 13172 ft | 365 kts | 256° |
| 2026-04-22 05:55 | 19.25892 | 73.67037 | 12683 ft | 362 kts | 255° |
| 2026-04-22 05:55 | 19.25200 | 73.64483 | 12172 ft | 360 kts | 251° |
| 2026-04-22 05:56 | 19.24413 | 73.61977 | 11683 ft | 357 kts | 250° |
| 2026-04-22 05:56 | 19.23611 | 73.59492 | 11189 ft | 355 kts | 250° |
| 2026-04-22 05:56 | 19.22812 | 73.57027 | 10715 ft | 354 kts | 250° |
| 2026-04-22 05:56 | 19.22016 | 73.54573 | 10366 ft | 348 kts | 250° |
| 2026-04-22 05:57 | 19.21244 | 73.52189 | 10204 ft | 336 kts | 250° |
| 2026-04-22 05:57 | 19.20510 | 73.49913 | 10062 ft | 325 kts | 250° |
| 2026-04-22 05:57 | 19.19790 | 73.47675 | 9931 ft | 314 kts | 250° |
| 2026-04-22 05:57 | 19.19100 | 73.45527 | 9840 ft | 303 kts | 250° |
| 2026-04-22 05:58 | 19.18434 | 73.43446 | 9710 ft | 293 kts | 250° |
| 2026-04-22 05:58 | 19.17788 | 73.41424 | 9491 ft | 287 kts | 250° |
| 2026-04-22 05:58 | 19.17151 | 73.39427 | 9156 ft | 287 kts | 250° |
| 2026-04-22 05:58 | 19.16511 | 73.37427 | 8831 ft | 286 kts | 250° |
| 2026-04-22 05:59 | 19.15870 | 73.35436 | 8545 ft | 286 kts | 250° |
| 2026-04-22 05:59 | 19.15227 | 73.33453 | 8207 ft | 285 kts | 250° |
| 2026-04-22 05:59 | 19.14591 | 73.31499 | 7919 ft | 283 kts | 250° |
| 2026-04-22 05:59 | 19.13948 | 73.29531 | 7568 ft | 283 kts | 250° |
| 2026-04-22 06:00 | 19.13314 | 73.27584 | 7192 ft | 274 kts | 250° |
| 2026-04-22 06:00 | 19.12699 | 73.25702 | 6589 ft | 268 kts | 250° |
| 2026-04-22 06:00 | 19.12086 | 73.23845 | 5985 ft | 269 kts | 250° |
| 2026-04-22 06:00 | 19.11462 | 73.21973 | 5679 ft | 270 kts | 250° |
| 2026-04-22 06:01 | 19.10829 | 73.20113 | 5473 ft | 269 kts | 250° |
| 2026-04-22 06:01 | 19.10191 | 73.18263 | 5201 ft | 271 kts | 250° |
| 2026-04-22 06:01 | 19.09545 | 73.16418 | 4928 ft | 266 kts | 253° |
| 2026-04-22 06:01 | 19.09250 | 73.14504 | 4722 ft | 261 kts | 268° |
| 2026-04-22 06:02 | 19.09201 | 73.12579 | 4402 ft | 262 kts | 271° |
| 2026-04-22 06:02 | 19.09195 | 73.10630 | 4057 ft | 268 kts | 271° |
| 2026-04-22 06:02 | 19.09175 | 73.08655 | 3716 ft | 268 kts | 272° |
| 2026-04-22 06:02 | 19.09148 | 73.06671 | 3400 ft | 273 kts | 271° |
| 2026-04-22 06:03 | 19.09117 | 73.04667 | 3033 ft | 266 kts | 272° |
| 2026-04-22 06:03 | 19.09091 | 73.02777 | 2733 ft | 248 kts | 272° |
| 2026-04-22 06:03 | 19.09067 | 73.01023 | 2423 ft | 232 kts | 272° |
| 2026-04-22 06:03 | 19.09043 | 72.99371 | 2106 ft | 218 kts | 272° |
| 2026-04-22 06:04 | 19.09023 | 72.97846 | 1889 ft | 199 kts | 272° |
| 2026-04-22 06:04 | 19.09004 | 72.96441 | 1630 ft | 183 kts | 272° |
| 2026-04-22 06:04 | 19.08986 | 72.95145 | 1385 ft | 172 kts | 271° |
| 2026-04-22 06:04 | 19.08969 | 72.93921 | 1191 ft | 163 kts | 272° |
| 2026-04-22 06:05 | 19.08956 | 72.92756 | 998 ft | 154 kts | 272° |
| 2026-04-22 06:05 | 19.08934 | 72.91652 | 812 ft | 151 kts | 273° |
| 2026-04-22 06:05 | 19.08923 | 72.90537 | 592 ft | 145 kts | 270° |
| 2026-04-22 06:05 | 19.08907 | 72.89511 | 405 ft | 142 kts | 270° |
| 2026-04-22 06:06 | 19.08896 | 72.88486 | 239 ft | 139 kts | 269° |
| 2026-04-22 06:06 | 19.08881 | 72.87490 | 54 ft | 133 kts | 270° |
| 2026-04-22 06:06 | 19.08866 | 72.86594 | 31 ft | 104 kts | 270° |
| 2026-04-22 06:06 | 19.08864 | 72.86063 | 27 ft | 37 kts | 276° |
| 2026-04-22 06:07 | 19.08943 | 72.85853 | 29 ft | 21 kts | 300° |
| 2026-04-22 06:07 | 19.09009 | 72.85826 | 29 ft | 9 kts | 40° |
| 2026-04-22 06:07 | 19.09029 | 72.85891 | 29 ft | 9 kts | 88° |
| 2026-04-22 06:07 | 19.09030 | 72.85961 | 29 ft | 9 kts | 90° |
| 2026-04-22 06:08 | 19.09031 | 72.86030 | 29 ft | 9 kts | 89° |
| 2026-04-22 06:08 | 19.09032 | 72.86100 | 29 ft | 9 kts | 89° |
| 2026-04-22 06:08 | 19.09034 | 72.86170 | 29 ft | 9 kts | 89° |
| 2026-04-22 06:08 | 19.09035 | 72.86240 | 29 ft | 9 kts | 89° |
| 2026-04-22 06:09 | 19.09036 | 72.86310 | 29 ft | 9 kts | 89° |
| 2026-04-22 06:09 | 19.09037 | 72.86380 | 29 ft | 9 kts | 89° |
| 2026-04-22 06:09 | 19.09037 | 72.86417 | 29 ft | 0 kts | 89° |
| 2026-04-22 06:10 | 19.09037 | 72.86429 | 29 ft | 8 kts | 89° |
| 2026-04-22 06:10 | 19.09039 | 72.86542 | 29 ft | 17 kts | 89° |
| 2026-04-22 06:10 | 19.09041 | 72.86668 | 30 ft | 17 kts | 89° |
| 2026-04-22 06:10 | 19.09043 | 72.86796 | 30 ft | 17 kts | 89° |
| 2026-04-22 06:11 | 19.09044 | 72.86917 | 30 ft | 13 kts | 89° |
| 2026-04-22 06:11 | 19.09045 | 72.86992 | 30 ft | 9 kts | 89° |
| 2026-04-22 06:11 | 19.09045 | 72.87062 | 30 ft | 9 kts | 89° |
| 2026-04-22 06:11 | 19.09046 | 72.87131 | 30 ft | 9 kts | 89° |
| 2026-04-22 06:12 | 19.09047 | 72.87177 | 30 ft | 9 kts | 89° |
| 2026-04-22 06:12 | 19.09051 | 72.87245 | 30 ft | 9 kts | 74° |
| 2026-04-22 06:12 | 19.09130 | 72.87267 | 30 ft | 9 kts | 0° |
| 2026-04-22 06:12 | 19.09196 | 72.87268 | 30 ft | 9 kts | 5° |
| 2026-04-22 06:13 | 19.09230 | 72.87295 | 30 ft | 9 kts | 62° |
| 2026-04-22 06:13 | 19.09254 | 72.87356 | 30 ft | 7 kts | 37° |
| 2026-04-22 06:13 | 19.09283 | 72.87349 | 30 ft | 4 kts | 314° |
| 2026-04-22 06:13 | 19.09306 | 72.87320 | 30 ft | 4 kts | 307° |
| 2026-04-22 06:14 | 19.09317 | 72.87304 | 30 ft | 4 kts | 307° |
| 2026-04-22 06:14 | 19.09333 | 72.87282 | 30 ft | 4 kts | 307° |
| 2026-04-22 06:14 | 19.09340 | 72.87273 | 30 ft | 0 kts | 307° |
| 2026-04-22 06:20 | 19.09339 | 72.87273 | 30 ft | 0 kts | 307° |